sensor_id;sensor_type;location;lat;lon;timestamp;pressure;altitude;pressure_sealevel;temperature;humidity
19023;BME280;35226;48.606;8.858;2023-04-27T00:00:26;96334.00;;;8.39;100.00
19023;BME280;35226;48.606;8.858;2023-04-27T00:02:52;96333.66;;;8.37;100.00
19023;BME280;35226;48.606;8.858;2023-04-27T00:05:17;96327.78;;;8.35;100.00
19023;BME280;35226;48.606;8.858;2023-04-27T00:07:43;96330.19;;;8.33;100.00
19023;BME280;35226;48.606;8.858;2023-04-27T00:10:10;96331.25;;;8.39;100.00
19023;BME280;35226;48.606;8.858;2023-04-27T00:12:37;96328.72;;;8.29;100.00
19023;BME280;35226;48.606;8.858;2023-04-27T00:15:04;96322.00;;;8.30;100.00
19023;BME280;35226;48.606;8.858;2023-04-27T00:17:29;96322.50;;;8.25;100.00
19023;BME280;35226;48.606;8.858;2023-04-27T00:19:55;96325.59;;;8.27;100.00
19023;BME280;35226;48.606;8.858;2023-04-27T00:22:20;96324.16;;;8.22;100.00
19023;BME280;35226;48.606;8.858;2023-04-27T00:24:46;96323.44;;;8.18;100.00
19023;BME280;35226;48.606;8.858;2023-04-27T00:27:12;96327.75;;;8.19;100.00
19023;BME280;35226;48.606;8.858;2023-04-27T00:29:38;96321.41;;;8.22;100.00
19023;BME280;35226;48.606;8.858;2023-04-27T00:32:10;96320.63;;;8.22;100.00
19023;BME280;35226;48.606;8.858;2023-04-27T00:34:36;96319.84;;;8.21;100.00
19023;BME280;35226;48.606;8.858;2023-04-27T00:37:03;96313.28;;;8.15;100.00
19023;BME280;35226;48.606;8.858;2023-04-27T00:39:32;96310.16;;;8.13;100.00
19023;BME280;35226;48.606;8.858;2023-04-27T00:41:59;96306.69;;;8.12;100.00
19023;BME280;35226;48.606;8.858;2023-04-27T00:44:26;96306.56;;;8.16;100.00
19023;BME280;35226;48.606;8.858;2023-04-27T00:46:52;96297.34;;;8.06;100.00
19023;BME280;35226;48.606;8.858;2023-04-27T00:49:21;96301.25;;;8.09;100.00
19023;BME280;35226;48.606;8.858;2023-04-27T00:51:47;96292.22;;;8.08;100.00
19023;BME280;35226;48.606;8.858;2023-04-27T00:54:14;96296.75;;;8.35;100.00
19023;BME280;35226;48.606;8.858;2023-04-27T00:56:43;96291.66;;;8.33;100.00
19023;BME280;35226;48.606;8.858;2023-04-27T00:59:09;96299.22;;;8.29;100.00
19023;BME280;35226;48.606;8.858;2023-04-27T01:01:34;96297.31;;;8.26;100.00
19023;BME280;35226;48.606;8.858;2023-04-27T01:04:00;96297.94;;;8.34;100.00
19023;BME280;35226;48.606;8.858;2023-04-27T01:06:25;96294.91;;;8.28;100.00
19023;BME280;35226;48.606;8.858;2023-04-27T01:08:54;96305.13;;;8.28;100.00
19023;BME280;35226;48.606;8.858;2023-04-27T01:11:20;96301.78;;;8.20;100.00
19023;BME280;35226;48.606;8.858;2023-04-27T01:13:45;96300.22;;;8.19;100.00
19023;BME280;35226;48.606;8.858;2023-04-27T01:16:11;96305.72;;;8.19;100.00
19023;BME280;35226;48.606;8.858;2023-04-27T01:18:37;96310.88;;;8.17;100.00
19023;BME280;35226;48.606;8.858;2023-04-27T01:21:05;96304.66;;;8.13;100.00
19023;BME280;35226;48.606;8.858;2023-04-27T01:23:31;96317.31;;;8.10;100.00
19023;BME280;35226;48.606;8.858;2023-04-27T01:25:57;96318.09;;;8.11;100.00
19023;BME280;35226;48.606;8.858;2023-04-27T01:28:23;96311.81;;;8.10;100.00
19023;BME280;35226;48.606;8.858;2023-04-27T01:30:48;96314.22;;;8.08;100.00
19023;BME280;35226;48.606;8.858;2023-04-27T01:33:13;96316.34;;;8.01;100.00
19023;BME280;35226;48.606;8.858;2023-04-27T01:35:39;96312.31;;;8.05;100.00
19023;BME280;35226;48.606;8.858;2023-04-27T01:38:04;96309.38;;;7.96;100.00
19023;BME280;35226;48.606;8.858;2023-04-27T01:40:30;96312.06;;;8.00;100.00
19023;BME280;35226;48.606;8.858;2023-04-27T01:42:55;96308.34;;;7.90;100.00
19023;BME280;35226;48.606;8.858;2023-04-27T01:45:21;96300.75;;;7.94;100.00
19023;BME280;35226;48.606;8.858;2023-04-27T01:47:46;96303.97;;;7.93;100.00
19023;BME280;35226;48.606;8.858;2023-04-27T01:50:11;96306.00;;;7.89;100.00
19023;BME280;35226;48.606;8.858;2023-04-27T01:52:38;96309.16;;;7.87;100.00
19023;BME280;35226;48.606;8.858;2023-04-27T01:55:03;96305.66;;;7.87;100.00
19023;BME280;35226;48.606;8.858;2023-04-27T01:57:29;96299.88;;;7.81;100.00
19023;BME280;35226;48.606;8.858;2023-04-27T01:59:55;96301.44;;;7.82;100.00
19023;BME280;35226;48.606;8.858;2023-04-27T02:02:21;96306.56;;;7.80;100.00
19023;BME280;35226;48.606;8.858;2023-04-27T02:04:46;96313.44;;;7.72;100.00
19023;BME280;35226;48.606;8.858;2023-04-27T02:07:11;96304.66;;;7.77;100.00
19023;BME280;35226;48.606;8.858;2023-04-27T02:09:37;96312.91;;;7.77;100.00
19023;BME280;35226;48.606;8.858;2023-04-27T02:12:02;96316.44;;;7.77;100.00
19023;BME280;35226;48.606;8.858;2023-04-27T02:14:28;96322.38;;;7.76;100.00
19023;BME280;35226;48.606;8.858;2023-04-27T02:16:53;96316.44;;;7.77;100.00
19023;BME280;35226;48.606;8.858;2023-04-27T02:19:21;96321.16;;;7.77;100.00
19023;BME280;35226;48.606;8.858;2023-04-27T02:21:46;96314.53;;;7.74;100.00
19023;BME280;35226;48.606;8.858;2023-04-27T02:24:12;96319.97;;;7.78;100.00
19023;BME280;35226;48.606;8.858;2023-04-27T02:26:37;96323.16;;;7.76;100.00
19023;BME280;35226;48.606;8.858;2023-04-27T03:17:30;96316.50;;;7.54;100.00
19023;BME280;35226;48.606;8.858;2023-04-27T03:19:56;96328.66;;;7.57;100.00
19023;BME280;35226;48.606;8.858;2023-04-27T03:22:22;96325.41;;;7.62;100.00
19023;BME280;35226;48.606;8.858;2023-04-27T03:24:48;96322.25;;;7.63;100.00
19023;BME280;35226;48.606;8.858;2023-04-27T03:27:14;96328.16;;;7.62;100.00
19023;BME280;35226;48.606;8.858;2023-04-27T03:29:41;96317.66;;;7.57;100.00
19023;BME280;35226;48.606;8.858;2023-04-27T03:32:06;96329.72;;;7.63;100.00
19023;BME280;35226;48.606;8.858;2023-04-27T03:34:31;96321.47;;;7.63;100.00
19023;BME280;35226;48.606;8.858;2023-04-27T03:36:57;96321.19;;;7.57;100.00
19023;BME280;35226;48.606;8.858;2023-04-27T03:39:23;96322.38;;;7.56;100.00
19023;BME280;35226;48.606;8.858;2023-04-27T03:41:48;96330.63;;;7.56;100.00
19023;BME280;35226;48.606;8.858;2023-04-27T03:44:14;96328.16;;;7.62;100.00
19023;BME280;35226;48.606;8.858;2023-04-27T03:46:40;96323.94;;;7.57;100.00
19023;BME280;35226;48.606;8.858;2023-04-27T03:49:06;96331.03;;;7.55;100.00
19023;BME280;35226;48.606;8.858;2023-04-27T03:51:31;96335.63;;;7.61;100.00
19023;BME280;35226;48.606;8.858;2023-04-27T03:53:58;96339.59;;;7.60;100.00
19023;BME280;35226;48.606;8.858;2023-04-27T03:56:24;96331.75;;;7.59;100.00
19023;BME280;35226;48.606;8.858;2023-04-27T03:58:50;96327.50;;;7.54;100.00
19023;BME280;35226;48.606;8.858;2023-04-27T04:01:17;96327.97;;;7.53;100.00
19023;BME280;35226;48.606;8.858;2023-04-27T04:03:44;96329.84;;;7.56;100.00
19023;BME280;35226;48.606;8.858;2023-04-27T04:06:10;96331.03;;;7.55;100.00
19023;BME280;35226;48.606;8.858;2023-04-27T04:08:36;96339.78;;;7.50;100.00
19023;BME280;35226;48.606;8.858;2023-04-27T04:11:01;96337.03;;;7.50;100.00
19023;BME280;35226;48.606;8.858;2023-04-27T04:13:28;96334.78;;;7.44;100.00
19023;BME280;35226;48.606;8.858;2023-04-27T04:16:01;96334.03;;;7.44;100.00
19023;BME280;35226;48.606;8.858;2023-04-27T04:18:27;96338.66;;;7.47;100.00
19023;BME280;35226;48.606;8.858;2023-04-27T04:20:52;96338.66;;;7.47;100.00
19023;BME280;35226;48.606;8.858;2023-04-27T04:23:18;96340.50;;;7.54;100.00
19023;BME280;35226;48.606;8.858;2023-04-27T04:25:44;96346.13;;;7.47;100.00
19023;BME280;35226;48.606;8.858;2023-04-27T04:28:12;96346.84;;;7.51;100.00
19023;BME280;35226;48.606;8.858;2023-04-27T04:30:38;96348.88;;;7.47;100.00
19023;BME280;35226;48.606;8.858;2023-04-27T04:33:03;96344.50;;;7.49;100.00
19023;BME280;35226;48.606;8.858;2023-04-27T04:35:29;96345.56;;;7.55;100.00
19023;BME280;35226;48.606;8.858;2023-04-27T04:37:58;96343.69;;;7.52;100.00
19023;BME280;35226;48.606;8.858;2023-04-27T04:40:23;96352.34;;;7.51;100.00
19023;BME280;35226;48.606;8.858;2023-04-27T04:42:49;96358.19;;;7.53;100.00
19023;BME280;35226;48.606;8.858;2023-04-27T04:45:15;96350.00;;;7.49;100.00
19023;BME280;35226;48.606;8.858;2023-04-27T04:47:41;96351.56;;;7.50;100.00
19023;BME280;35226;48.606;8.858;2023-04-27T04:50:07;96351.97;;;7.49;100.00
19023;BME280;35226;48.606;8.858;2023-04-27T04:52:34;96360.22;;;7.49;100.00
19023;BME280;35226;48.606;8.858;2023-04-27T04:55:02;96358.63;;;7.51;100.00
19023;BME280;35226;48.606;8.858;2023-04-27T04:57:31;96364.81;;;7.55;100.00
19023;BME280;35226;48.606;8.858;2023-04-27T04:59:57;96361.72;;;7.53;100.00
19023;BME280;35226;48.606;8.858;2023-04-27T05:02:22;96359.75;;;7.54;100.00
19023;BME280;35226;48.606;8.858;2023-04-27T05:04:48;96361.72;;;7.53;100.00
19023;BME280;35226;48.606;8.858;2023-04-27T05:07:13;96360.50;;;7.54;100.00
19023;BME280;35226;48.606;8.858;2023-04-27T05:09:39;96359.31;;;7.55;100.00
19023;BME280;35226;48.606;8.858;2023-04-27T05:12:05;96357.28;;;7.59;100.00
19023;BME280;35226;48.606;8.858;2023-04-27T05:14:31;96348.66;;;7.57;100.00
19023;BME280;35226;48.606;8.858;2023-04-27T05:16:56;96356.50;;;7.59;100.00
19023;BME280;35226;48.606;8.858;2023-04-27T05:19:22;96357.22;;;7.63;100.00
19023;BME280;35226;48.606;8.858;2023-04-27T05:21:49;96358.63;;;7.51;100.00
19023;BME280;35226;48.606;8.858;2023-04-27T05:24:15;96368.63;;;7.61;100.00
19023;BME280;35226;48.606;8.858;2023-04-27T05:26:44;96365.78;;;7.65;100.00
19023;BME280;35226;48.606;8.858;2023-04-27T05:29:09;96363.75;;;7.69;100.00
19023;BME280;35226;48.606;8.858;2023-04-27T05:31:35;96364.97;;;7.68;100.00
19023;BME280;35226;48.606;8.858;2023-04-27T05:34:01;96368.75;;;7.74;100.00
19023;BME280;35226;48.606;8.858;2023-04-27T05:36:26;96377.78;;;7.74;100.00
19023;BME280;35226;48.606;8.858;2023-04-27T05:38:53;96372.22;;;7.78;100.00
19023;BME280;35226;48.606;8.858;2023-04-27T05:41:18;96369.00;;;7.83;100.00
19023;BME280;35226;48.606;8.858;2023-04-27T05:43:44;96369.13;;;7.76;100.00
19023;BME280;35226;48.606;8.858;2023-04-27T05:46:13;96382.59;;;7.70;100.00
19023;BME280;35226;48.606;8.858;2023-04-27T05:48:39;96374.72;;;7.92;100.00
19023;BME280;35226;48.606;8.858;2023-04-27T05:51:06;96375.03;;;7.74;100.00
19023;BME280;35226;48.606;8.858;2023-04-27T05:53:32;96372.72;;;7.93;100.00
19023;BME280;35226;48.606;8.858;2023-04-27T05:55:58;96377.88;;;7.91;100.00
19023;BME280;35226;48.606;8.858;2023-04-27T05:58:25;96387.38;;;8.06;100.00
19023;BME280;35226;48.606;8.858;2023-04-27T06:00:54;96388.78;;;8.14;100.00
19023;BME280;35226;48.606;8.858;2023-04-27T06:03:21;96399.78;;;7.94;100.00
19023;BME280;35226;48.606;8.858;2023-04-27T06:05:52;96393.66;;;8.06;100.00
19023;BME280;35226;48.606;8.858;2023-04-27T06:08:18;96394.59;;;8.00;100.00
19023;BME280;35226;48.606;8.858;2023-04-27T06:10:43;96397.38;;;8.16;100.00
19023;BME280;35226;48.606;8.858;2023-04-27T06:13:09;96402.81;;;8.20;100.00
19023;BME280;35226;48.606;8.858;2023-04-27T06:15:35;96407.47;;;8.23;100.00
19023;BME280;35226;48.606;8.858;2023-04-27T06:18:00;96407.34;;;8.30;100.00
19023;BME280;35226;48.606;8.858;2023-04-27T06:20:26;96405.75;;;8.32;100.00
19023;BME280;35226;48.606;8.858;2023-04-27T06:22:51;96413.41;;;8.41;100.00
19023;BME280;35226;48.606;8.858;2023-04-27T06:25:17;96412.22;;;8.42;100.00
19023;BME280;35226;48.606;8.858;2023-04-27T06:27:42;96411.28;;;8.48;100.00
19023;BME280;35226;48.606;8.858;2023-04-27T06:30:08;96415.84;;;8.55;100.00
19023;BME280;35226;48.606;8.858;2023-04-27T06:32:33;96419.22;;;8.63;100.00
19023;BME280;35226;48.606;8.858;2023-04-27T06:34:59;96416.63;;;8.72;100.00
19023;BME280;35226;48.606;8.858;2023-04-27T06:37:24;96401.34;;;8.71;100.00
19023;BME280;35226;48.606;8.858;2023-04-27T06:39:50;96410.88;;;8.82;100.00
19023;BME280;35226;48.606;8.858;2023-04-27T06:42:15;96406.09;;;8.86;100.00
19023;BME280;35226;48.606;8.858;2023-04-27T06:44:41;96409.72;;;9.00;100.00
19023;BME280;35226;48.606;8.858;2023-04-27T06:47:07;96410.16;;;8.98;100.00
19023;BME280;35226;48.606;8.858;2023-04-27T06:49:32;96408.34;;;9.08;100.00
19023;BME280;35226;48.606;8.858;2023-04-27T06:51:58;96414.78;;;9.17;100.00
19023;BME280;35226;48.606;8.858;2023-04-27T06:54:25;96416.69;;;9.20;100.00
19023;BME280;35226;48.606;8.858;2023-04-27T06:56:50;96412.56;;;9.28;100.00
19023;BME280;35226;48.606;8.858;2023-04-27T06:59:16;96416.56;;;9.40;100.00
19023;BME280;35226;48.606;8.858;2023-04-27T07:01:41;96413.66;;;9.47;100.00
19023;BME280;35226;48.606;8.858;2023-04-27T07:04:07;96419.06;;;9.51;100.00
19023;BME280;35226;48.606;8.858;2023-04-27T07:06:32;96413.09;;;9.52;100.00
19023;BME280;35226;48.606;8.858;2023-04-27T07:08:58;96416.66;;;9.53;100.00
19023;BME280;35226;48.606;8.858;2023-04-27T07:11:23;96408.34;;;9.69;100.00
19023;BME280;35226;48.606;8.858;2023-04-27T07:13:49;96408.50;;;9.78;100.00
19023;BME280;35226;48.606;8.858;2023-04-27T07:16:15;96418.78;;;9.90;100.00
19023;BME280;35226;48.606;8.858;2023-04-27T07:18:41;96411.97;;;9.95;100.00
19023;BME280;35226;48.606;8.858;2023-04-27T07:21:07;96414.78;;;10.08;100.00
19023;BME280;35226;48.606;8.858;2023-04-27T07:23:33;96414.41;;;10.22;100.00
19023;BME280;35226;48.606;8.858;2023-04-27T07:25:58;96416.50;;;10.30;100.00
19023;BME280;35226;48.606;8.858;2023-04-27T07:28:24;96410.47;;;10.48;100.00
19023;BME280;35226;48.606;8.858;2023-04-27T07:30:49;96409.59;;;10.51;100.00
19023;BME280;35226;48.606;8.858;2023-04-27T07:33:16;96406.28;;;10.56;100.00
19023;BME280;35226;48.606;8.858;2023-04-27T07:35:41;96401.78;;;10.75;100.00
19023;BME280;35226;48.606;8.858;2023-04-27T07:38:07;96409.38;;;10.58;100.00
19023;BME280;35226;48.606;8.858;2023-04-27T07:40:33;96403.53;;;10.94;100.00
19023;BME280;35226;48.606;8.858;2023-04-27T07:42:59;96404.31;;;10.95;100.00
19023;BME280;35226;48.606;8.858;2023-04-27T07:45:24;96401.56;;;10.95;100.00
19023;BME280;35226;48.606;8.858;2023-04-27T07:47:57;96390.78;;;11.09;100.00
19023;BME280;35226;48.606;8.858;2023-04-27T07:50:25;96397.22;;;11.06;100.00
19023;BME280;35226;48.606;8.858;2023-04-27T07:52:52;96390.78;;;11.22;100.00
19023;BME280;35226;48.606;8.858;2023-04-27T07:55:17;96394.19;;;11.26;100.00
19023;BME280;35226;48.606;8.858;2023-04-27T07:57:43;96394.84;;;11.43;100.00
19023;BME280;35226;48.606;8.858;2023-04-27T08:00:09;96394.34;;;11.57;100.00
19023;BME280;35226;48.606;8.858;2023-04-27T08:02:38;96396.94;;;11.73;100.00
19023;BME280;35226;48.606;8.858;2023-04-27T08:05:03;96396.19;;;11.73;100.00
19023;BME280;35226;48.606;8.858;2023-04-27T08:07:29;96393.38;;;11.85;100.00
19023;BME280;35226;48.606;8.858;2023-04-27T08:09:56;96399.75;;;12.17;100.00
19023;BME280;35226;48.606;8.858;2023-04-27T08:12:21;96393.50;;;12.26;100.00
19023;BME280;35226;48.606;8.858;2023-04-27T08:14:47;96399.88;;;12.35;100.00
19023;BME280;35226;48.606;8.858;2023-04-27T08:17:12;96392.38;;;12.45;100.00
19023;BME280;35226;48.606;8.858;2023-04-27T08:19:38;96386.81;;;12.67;100.00
19023;BME280;35226;48.606;8.858;2023-04-27T08:22:04;96388.75;;;12.57;100.00
19023;BME280;35226;48.606;8.858;2023-04-27T08:24:30;96387.78;;;12.73;100.00
19023;BME280;35226;48.606;8.858;2023-04-27T08:26:55;96385.25;;;12.96;100.00
19023;BME280;35226;48.606;8.858;2023-04-27T08:29:21;96388.19;;;13.02;100.00
19023;BME280;35226;48.606;8.858;2023-04-27T08:31:47;96377.41;;;13.13;100.00
19023;BME280;35226;48.606;8.858;2023-04-27T08:34:12;96382.53;;;13.15;100.00
19023;BME280;35226;48.606;8.858;2023-04-27T08:36:38;96371.00;;;13.25;100.00
19023;BME280;35226;48.606;8.858;2023-04-27T08:39:04;96372.44;;;13.39;100.00
19023;BME280;35226;48.606;8.858;2023-04-27T08:41:33;96373.81;;;13.44;100.00
19023;BME280;35226;48.606;8.858;2023-04-27T08:43:59;96372.78;;;13.59;100.00
19023;BME280;35226;48.606;8.858;2023-04-27T08:46:25;96370.78;;;13.78;100.00
19023;BME280;35226;48.606;8.858;2023-04-27T08:48:53;96369.38;;;13.92;100.00
19023;BME280;35226;48.606;8.858;2023-04-27T08:51:20;96372.91;;;14.11;100.00
19023;BME280;35226;48.606;8.858;2023-04-27T08:53:54;96370.59;;;14.09;100.00
19023;BME280;35226;48.606;8.858;2023-04-27T08:56:22;96371.19;;;14.22;100.00
19023;BME280;35226;48.606;8.858;2023-04-27T08:58:49;96375.06;;;14.25;100.00
19023;BME280;35226;48.606;8.858;2023-04-27T09:01:15;96372.41;;;14.49;100.00
19023;BME280;35226;48.606;8.858;2023-04-27T09:03:41;96372.25;;;14.43;100.00
19023;BME280;35226;48.606;8.858;2023-04-27T09:06:07;96371.78;;;14.44;95.30
19023;BME280;35226;48.606;8.858;2023-04-27T09:08:48;96388.88;;;14.61;95.74
19023;BME280;35226;48.606;8.858;2023-04-27T09:11:15;96387.16;;;14.73;94.63
19023;BME280;35226;48.606;8.858;2023-04-27T09:13:52;96387.28;;;14.88;98.14
19023;BME280;35226;48.606;8.858;2023-04-27T09:16:22;96378.88;;;14.97;96.06
19023;BME280;35226;48.606;8.858;2023-04-27T09:18:48;96376.16;;;14.88;86.25
19023;BME280;35226;48.606;8.858;2023-04-27T09:21:23;96381.19;;;14.98;88.22
19023;BME280;35226;48.606;8.858;2023-04-27T09:23:50;96375.53;;;15.16;84.15
19023;BME280;35226;48.606;8.858;2023-04-27T09:26:20;96380.63;;;14.85;71.08
19023;BME280;35226;48.606;8.858;2023-04-27T09:28:48;96372.66;;;15.02;75.28
19023;BME280;35226;48.606;8.858;2023-04-27T09:31:14;96370.25;;;15.18;83.06
19023;BME280;35226;48.606;8.858;2023-04-27T09:33:40;96372.81;;;15.31;73.54
19023;BME280;35226;48.606;8.858;2023-04-27T09:36:07;96372.47;;;15.14;72.99
19023;BME280;35226;48.606;8.858;2023-04-27T09:38:33;96378.28;;;15.26;77.92
19023;BME280;35226;48.606;8.858;2023-04-27T09:40:59;96374.13;;;15.45;70.54
19023;BME280;35226;48.606;8.858;2023-04-27T09:43:25;96383.38;;;15.51;68.63
19023;BME280;35226;48.606;8.858;2023-04-27T09:45:54;96373.28;;;15.63;70.76
19023;BME280;35226;48.606;8.858;2023-04-27T09:48:21;96366.69;;;15.75;77.63
19023;BME280;35226;48.606;8.858;2023-04-27T09:50:48;96372.25;;;15.75;70.80
19023;BME280;35226;48.606;8.858;2023-04-27T09:53:22;96367.94;;;15.74;70.06
19023;BME280;35226;48.606;8.858;2023-04-27T10:01:11;96369.25;;;16.17;74.50
19023;BME280;35226;48.606;8.858;2023-04-27T10:08:59;96366.09;;;16.39;73.49
19023;BME280;35226;48.606;8.858;2023-04-27T10:11:36;96366.19;;;16.59;67.21
19023;BME280;35226;48.606;8.858;2023-04-27T10:14:07;96369.22;;;16.70;71.94
19023;BME280;35226;48.606;8.858;2023-04-27T10:16:52;96362.84;;;16.84;66.30
19023;BME280;35226;48.606;8.858;2023-04-27T10:19:18;96363.50;;;16.94;64.48
19023;BME280;35226;48.606;8.858;2023-04-27T10:24:16;96364.47;;;16.76;70.84
19023;BME280;35226;48.606;8.858;2023-04-27T10:26:46;96363.41;;;17.03;65.50
19023;BME280;35226;48.606;8.858;2023-04-27T10:29:12;96355.66;;;17.13;60.78
19023;BME280;35226;48.606;8.858;2023-04-27T10:31:47;96347.44;;;17.44;63.63
19023;BME280;35226;48.606;8.858;2023-04-27T10:34:17;96347.97;;;17.43;62.47
19023;BME280;35226;48.606;8.858;2023-04-27T10:36:42;96348.75;;;17.63;58.81
19023;BME280;35226;48.606;8.858;2023-04-27T10:39:15;96349.56;;;17.49;57.98
19023;BME280;35226;48.606;8.858;2023-04-27T10:41:51;96358.06;;;17.20;54.10
19023;BME280;35226;48.606;8.858;2023-04-27T10:44:24;96354.47;;;17.95;57.34
19023;BME280;35226;48.606;8.858;2023-04-27T10:46:56;96352.81;;;17.62;52.70
19023;BME280;35226;48.606;8.858;2023-04-27T10:49:22;96348.47;;;18.02;51.96
19023;BME280;35226;48.606;8.858;2023-04-27T10:51:49;96350.88;;;18.15;50.24
19023;BME280;35226;48.606;8.858;2023-04-27T10:54:15;96351.38;;;17.93;52.69
19023;BME280;35226;48.606;8.858;2023-04-27T10:56:41;96344.19;;;17.86;53.83
19023;BME280;35226;48.606;8.858;2023-04-27T10:59:07;96345.06;;;18.18;54.60
19023;BME280;35226;48.606;8.858;2023-04-27T11:01:33;96342.00;;;17.55;52.43
19023;BME280;35226;48.606;8.858;2023-04-27T11:04:01;96342.63;;;18.05;51.03
19023;BME280;35226;48.606;8.858;2023-04-27T11:06:29;96343.69;;;18.34;51.69
19023;BME280;35226;48.606;8.858;2023-04-27T11:08:55;96346.50;;;18.60;52.54
19023;BME280;35226;48.606;8.858;2023-04-27T11:11:21;96337.97;;;18.48;48.69
19023;BME280;35226;48.606;8.858;2023-04-27T11:13:49;96336.88;;;18.15;47.48
19023;BME280;35226;48.606;8.858;2023-04-27T11:16:17;96335.53;;;18.30;47.11
19023;BME280;35226;48.606;8.858;2023-04-27T11:18:44;96338.19;;;17.93;49.46
19023;BME280;35226;48.606;8.858;2023-04-27T11:21:10;96324.78;;;17.77;50.39
19023;BME280;35226;48.606;8.858;2023-04-27T11:23:36;96332.81;;;18.16;52.61
19023;BME280;35226;48.606;8.858;2023-04-27T11:28:59;96345.41;;;17.80;53.64
19023;BME280;35226;48.606;8.858;2023-04-27T11:31:26;96340.94;;;17.67;53.59
19023;BME280;35226;48.606;8.858;2023-04-27T11:33:52;96343.91;;;17.84;53.39
19023;BME280;35226;48.606;8.858;2023-04-27T11:36:20;96338.75;;;17.97;51.50
19023;BME280;35226;48.606;8.858;2023-04-27T11:38:46;96336.41;;;17.70;49.89
19023;BME280;35226;48.606;8.858;2023-04-27T11:41:12;96344.06;;;17.75;53.82
19023;BME280;35226;48.606;8.858;2023-04-27T11:43:41;96346.72;;;17.64;50.41
19023;BME280;35226;48.606;8.858;2023-04-27T11:46:08;96346.44;;;17.62;51.71
19023;BME280;35226;48.606;8.858;2023-04-27T11:48:38;96337.56;;;17.43;51.92
19023;BME280;35226;48.606;8.858;2023-04-27T11:51:04;96335.22;;;17.21;52.48
19023;BME280;35226;48.606;8.858;2023-04-27T11:53:32;96336.53;;;17.26;53.97
19023;BME280;35226;48.606;8.858;2023-04-27T11:55:59;96342.19;;;17.11;58.15
19023;BME280;35226;48.606;8.858;2023-04-27T11:58:27;96337.34;;;16.91;58.43
19023;BME280;35226;48.606;8.858;2023-04-27T12:00:55;96332.69;;;17.03;59.00
19023;BME280;35226;48.606;8.858;2023-04-27T12:03:20;96330.44;;;17.07;57.65
19023;BME280;35226;48.606;8.858;2023-04-27T12:05:48;96322.38;;;16.94;55.64
19023;BME280;35226;48.606;8.858;2023-04-27T12:08:15;96320.16;;;17.13;56.15
19023;BME280;35226;48.606;8.858;2023-04-27T12:10:40;96332.69;;;17.03;55.14
19023;BME280;35226;48.606;8.858;2023-04-27T12:13:06;96337.94;;;16.66;53.57
19023;BME280;35226;48.606;8.858;2023-04-27T12:15:33;96334.84;;;16.93;52.87
19023;BME280;35226;48.606;8.858;2023-04-27T12:17:58;96328.38;;;17.02;54.16
19023;BME280;35226;48.606;8.858;2023-04-27T12:20:24;96325.75;;;16.98;57.77
19023;BME280;35226;48.606;8.858;2023-04-27T12:22:51;96324.81;;;16.87;57.24
19023;BME280;35226;48.606;8.858;2023-04-27T12:25:16;96328.19;;;16.91;57.74
19023;BME280;35226;48.606;8.858;2023-04-27T12:27:42;96332.22;;;16.90;54.72
19023;BME280;35226;48.606;8.858;2023-04-27T12:30:11;96332.03;;;16.93;53.91
19023;BME280;35226;48.606;8.858;2023-04-27T12:32:37;96331.94;;;16.88;53.08
19023;BME280;35226;48.606;8.858;2023-04-27T12:35:04;96334.50;;;17.06;55.19
19023;BME280;35226;48.606;8.858;2023-04-27T12:37:31;96336.50;;;17.06;53.76
19023;BME280;35226;48.606;8.858;2023-04-27T12:39:56;96327.88;;;17.04;53.72
19023;BME280;35226;48.606;8.858;2023-04-27T12:42:23;96333.03;;;17.11;55.02
19023;BME280;35226;48.606;8.858;2023-04-27T12:44:49;96325.94;;;17.10;58.66
19023;BME280;35226;48.606;8.858;2023-04-27T12:47:16;96318.28;;;17.65;57.93
19023;BME280;35226;48.606;8.858;2023-04-27T12:49:42;96313.78;;;17.53;61.76
19023;BME280;35226;48.606;8.858;2023-04-27T12:52:08;96314.84;;;17.56;60.72
19023;BME280;35226;48.606;8.858;2023-04-27T12:54:33;96309.88;;;17.45;56.60
19023;BME280;35226;48.606;8.858;2023-04-27T12:57:00;96313.91;;;17.79;54.38
19023;BME280;35226;48.606;8.858;2023-04-27T12:59:33;96311.88;;;17.80;56.95
19023;BME280;35226;48.606;8.858;2023-04-27T13:02:02;96297.03;;;17.73;57.00
19023;BME280;35226;48.606;8.858;2023-04-27T13:04:29;96312.56;;;17.74;58.40
19023;BME280;35226;48.606;8.858;2023-04-27T13:06:58;96309.22;;;17.70;57.98
19023;BME280;35226;48.606;8.858;2023-04-27T13:09:28;96299.00;;;17.88;54.09
19023;BME280;35226;48.606;8.858;2023-04-27T13:11:54;96297.13;;;18.05;53.14
19023;BME280;35226;48.606;8.858;2023-04-27T13:14:21;96301.44;;;18.32;50.56
19023;BME280;35226;48.606;8.858;2023-04-27T13:16:47;96305.88;;;18.44;49.81
19023;BME280;35226;48.606;8.858;2023-04-27T13:19:13;96306.09;;;18.66;48.56
19023;BME280;35226;48.606;8.858;2023-04-27T13:21:39;96306.66;;;18.70;48.44
19023;BME280;35226;48.606;8.858;2023-04-27T13:24:05;96313.03;;;18.45;49.94
19023;BME280;35226;48.606;8.858;2023-04-27T13:26:30;96314.13;;;18.27;51.91
19023;BME280;35226;48.606;8.858;2023-04-27T13:28:56;96308.91;;;18.15;51.49
19023;BME280;35226;48.606;8.858;2023-04-27T13:31:22;96302.34;;;18.18;51.71
19023;BME280;35226;48.606;8.858;2023-04-27T13:33:48;96297.78;;;18.46;56.09
19023;BME280;35226;48.606;8.858;2023-04-27T13:36:13;96295.75;;;18.46;52.55
19023;BME280;35226;48.606;8.858;2023-04-27T13:38:39;96295.72;;;18.41;52.05
19023;BME280;35226;48.606;8.858;2023-04-27T13:41:05;96304.34;;;18.43;51.39
19023;BME280;35226;48.606;8.858;2023-04-27T13:43:31;96297.91;;;18.57;53.05
19023;BME280;35226;48.606;8.858;2023-04-27T13:45:59;96294.34;;;18.62;51.26
19023;BME280;35226;48.606;8.858;2023-04-27T13:48:26;96297.63;;;18.29;52.28
19023;BME280;35226;48.606;8.858;2023-04-27T13:50:52;96294.06;;;18.29;51.01
19023;BME280;35226;48.606;8.858;2023-04-27T13:53:18;96302.31;;;18.43;51.53
19023;BME280;35226;48.606;8.858;2023-04-27T13:55:44;96296.91;;;18.60;50.09
19023;BME280;35226;48.606;8.858;2023-04-27T13:58:09;96299.97;;;18.62;49.98
19023;BME280;35226;48.606;8.858;2023-04-27T14:00:36;96296.75;;;18.75;49.47